Portada
METAR-TAF:

METAR-TAF

Aeroports :

Monroe, Louisiana, Estats Units d'Amèrica

latitud: 32-30-42N, longitud: 092-01-53W, altitud: 24 m

Observació

L'informe es va fer fa 32 minuts, a les 16:53 UTC
Vent calma
Temperatura 29°C
Humitat 48%
Pressió 1022 hPa
Visibilitat: 16.1 km
Cel clar

METAR: KMLU 011653Z 00000KT 10SM CLR 29/17 A3018 RMK AO2 SLP217 T02890167

Hora: 12:25 (17:25 UTC)

Pronòstic

L'informe es va fer fa 5 hores i 45 minuts, a les 11:40 UTC
Pronòstic vàlid del 01 a les 12 UTC al 02 a les 12 UTC
Vent 5 kt del Est/Nord-Est
Visibilitat: 10 km
Cel ennuvolat a una alçada de 25000 ft
A partir de les 01 a les 1700 UTC
Vent 6 kt del Est/Nord-Est
Visibilitat: 10 km
Escasses núvols a una alçada de 5000 ft
Cel ennuvolat a una alçada de 25000 ft
A partir de les 02 a les 0000 UTC
Vent 3 kt del Est/Nord-Est
Visibilitat: 10 km
Núvols disperses a una alçada de 25000 ft

TAF: KMLU 011140Z 0112/0212 07005KT P6SM BKN250 FM011700 07006KT P6SM FEW050 BKN250 FM020000 06003KT P6SM SCT250

Observacions i pronòstics meteorològics de més de 4000 aeroports (METAR i TAF).

Les estacions disponibles són els punts grocs i vermells al mapa.

Posi el ratolí al punt desitjat per veure el nom de l'estació.

Feu clic per veure les observacions i els pronòstics meteorològics.

Per canviar el mapa: feu clic els botons verds amb una creu de color negre per apropar; al botó verd amb un guió per allunyar la imatge; o en les fletxes verdes per a mapes adjacents.


METAR-TAF: